Time;durP1;ratioP1;P1;durP2;ratioP2;P2;SDS_P1;SDS_P2;PMS_P1;PMS_P2;Temp;Humidity;BMP_temperature;BMP_pressure;BME280_temperature;BME280_humidity;BME280_pressure;Samples;Min_cycle;Max_cycle;Signal;HPM_P1;HPM_P2
2023/01/21 00:01:32;;;;;;;0.70;0.70;;;;;;;4.96;100.00;99792.97;5133979;27;20204;-75
2023/01/21 00:03:59;;;;;;;0.80;0.80;;;;;;;5.05;100.00;99800.13;5084691;27;20200;-74
2023/01/21 00:06:27;;;;;;;1.27;1.27;;;;;;;5.12;100.00;99793.47;5134610;27;20287;-75
2023/01/21 00:08:54;;;;;;;0.90;0.90;;;;;;;5.07;100.00;99795.91;5146053;27;20196;-74
2023/01/21 00:11:21;;;;;;;1.00;1.00;;;;;;;4.89;100.00;99775.63;5153086;27;20199;-76
2023/01/21 00:13:47;;;;;;;1.30;1.30;;;;;;;4.66;100.00;99730.38;5149308;27;20269;-74
2023/01/21 00:16:14;;;;;;;0.80;0.80;;;;;;;4.97;100.00;99799.00;5134461;27;20284;-75
2023/01/21 00:18:41;;;;;;;0.77;0.77;;;;;;;5.07;100.00;99802.72;5134200;27;20285;-75
2023/01/21 00:21:08;;;;;;;0.90;0.90;;;;;;;5.10;100.00;99813.97;5134360;27;20208;-76
2023/01/21 00:23:36;;;;;;;0.77;0.77;;;;;;;5.17;100.00;99805.66;5137128;27;20200;-75
2023/01/21 00:26:05;;;;;;;0.63;0.63;;;;;;;5.04;100.00;99780.38;5149219;27;20201;-74
2023/01/21 00:28:34;;;;;;;0.70;0.70;;;;;;;5.04;100.00;99792.34;5146559;27;20255;-75
2023/01/21 00:31:03;;;;;;;1.00;1.00;;;;;;;5.11;100.00;99786.59;5152193;27;20223;-75
2023/01/21 00:33:32;;;;;;;0.80;0.80;;;;;;;5.14;100.00;99781.53;5152469;27;20276;-75
2023/01/21 00:36:00;;;;;;;1.27;1.27;;;;;;;5.30;100.00;99805.22;5134953;27;20204;-75
2023/01/21 00:38:27;;;;;;;0.90;0.90;;;;;;;5.32;100.00;99808.69;5134026;27;20200;-75
2023/01/21 00:41:01;;;;;;;0.70;0.70;;;;;;;5.28;100.00;99804.28;5133803;27;20639;-75
2023/01/21 00:43:28;;;;;;;0.90;0.90;;;;;;;5.19;100.00;99804.00;5082570;27;20215;-73
2023/01/21 00:45:54;;;;;;;0.90;0.90;;;;;;;5.11;100.00;99791.72;5089189;28;20201;-74
2023/01/21 00:48:21;;;;;;;0.90;0.90;;;;;;;5.21;100.00;99804.06;5142633;27;20208;-74
2023/01/21 00:50:50;;;;;;;0.90;0.90;;;;;;;5.29;100.00;99800.91;5149928;27;20224;-74
2023/01/21 00:53:17;;;;;;;0.87;0.87;;;;;;;5.22;100.00;99801.53;5133616;27;20652;-76
2023/01/21 00:55:44;;;;;;;0.77;0.77;;;;;;;5.13;100.00;99762.72;5133672;27;20200;-76
2023/01/21 00:58:12;;;;;;;0.90;0.90;;;;;;;5.25;100.00;99791.34;5134928;27;20191;-76
2023/01/21 01:00:38;;;;;;;0.90;0.90;;;;;;;5.06;100.00;99794.19;5137044;27;20208;-76
2023/01/21 01:03:05;;;;;;;1.00;1.00;;;;;;;5.18;100.00;99821.94;5154258;27;20192;-77
2023/01/21 01:05:32;;;;;;;0.90;0.90;;;;;;;5.11;100.00;99815.72;5137211;27;20261;-75
2023/01/21 01:07:59;;;;;;;0.80;0.80;;;;;;;5.07;100.00;99800.16;5134187;27;20188;-74
2023/01/21 01:10:26;;;;;;;0.80;0.80;;;;;;;5.08;100.00;99812.19;5083923;27;20224;-74
2023/01/21 01:12:53;;;;;;;0.63;0.63;;;;;;;5.15;100.00;99825.28;5141124;27;20828;-74
2023/01/21 01:15:21;;;;;;;0.70;0.70;;;;;;;5.16;100.00;99821.03;5141603;27;20624;-75
2023/01/21 01:17:47;;;;;;;0.80;0.80;;;;;;;4.86;100.00;99800.34;5113613;27;20196;-75
2023/01/21 01:20:14;;;;;;;0.90;0.90;;;;;;;5.02;100.00;99828.28;5133210;27;20604;-77
2023/01/21 01:22:41;;;;;;;0.90;0.90;;;;;;;4.98;100.00;99831.56;5151794;27;20650;-73
2023/01/21 01:25:08;;;;;;;0.80;0.80;;;;;;;4.91;100.00;99816.78;5138183;27;20278;-74
2023/01/21 01:27:35;;;;;;;0.80;0.80;;;;;;;5.05;100.00;99843.81;5151244;27;20593;-74
2023/01/21 01:30:02;;;;;;;1.03;1.03;;;;;;;5.00;100.00;99842.75;5151966;27;20666;-75
2023/01/21 01:32:30;;;;;;;0.90;0.90;;;;;;;5.13;100.00;99842.38;5125683;27;20596;-75
2023/01/21 01:34:56;;;;;;;0.90;0.90;;;;;;;5.04;100.00;99851.44;5125859;27;20266;-76
2023/01/21 01:37:23;;;;;;;0.90;0.90;;;;;;;5.06;100.00;99860.97;5145157;27;20207;-75
2023/01/21 01:39:50;;;;;;;0.80;0.80;;;;;;;4.99;100.00;99866.72;5153221;27;20200;-75
2023/01/21 01:42:17;;;;;;;1.00;1.00;;;;;;;4.92;100.00;99859.66;5152788;27;20285;-74
2023/01/21 01:45:06;;;;;;;0.70;0.70;;;;;;;4.89;100.00;99860.38;5152975;27;20675;-74
2023/01/21 01:47:41;;;;;;;0.80;0.80;;;;;;;4.50;100.00;99839.34;5034042;28;20667;-74
2023/01/21 01:50:12;;;;;;;1.43;1.33;;;;;;;3.73;100.00;99686.94;5038327;28;20219;-75
2023/01/21 01:52:40;;;;;;;1.30;1.30;;;;;;;4.38;100.00;99828.69;5030330;28;20632;-75
2023/01/21 01:55:09;;;;;;;0.90;0.90;;;;;;;4.36;100.00;99824.28;5030044;28;20200;-75
2023/01/21 01:57:41;;;;;;;0.90;0.90;;;;;;;4.27;100.00;99822.28;4984802;28;20220;-74
2023/01/21 02:00:10;;;;;;;1.00;1.00;;;;;;;4.19;100.00;99823.69;4991918;28;20204;-74
2023/01/21 02:02:40;;;;;;;0.87;0.87;;;;;;;4.11;100.00;99783.19;5031874;28;20212;-75
2023/01/21 02:05:09;;;;;;;0.80;0.80;;;;;;;4.25;100.00;99802.50;5048638;28;20258;-76
2023/01/21 02:07:39;;;;;;;0.80;0.80;;;;;;;4.30;100.00;99819.81;5046999;28;20201;-77
2023/01/21 02:10:07;;;;;;;0.90;0.90;;;;;;;4.21;100.00;99816.91;5034552;28;20227;-75
2023/01/21 02:12:34;;;;;;;0.90;0.90;;;;;;;4.14;100.00;99793.59;4998972;28;20283;-75
2023/01/21 02:15:01;;;;;;;0.77;0.77;;;;;;;4.21;100.00;99824.63;5028792;28;20208;-75
2023/01/21 02:17:44;;;;;;;0.80;0.80;;;;;;;4.27;100.00;99840.25;5044808;28;20223;-75
2023/01/21 02:20:40;;;;;;;0.80;0.80;;;;;;;4.18;100.00;99857.88;5032777;28;20227;-75
2023/01/21 02:23:17;;;;;;;0.80;0.80;;;;;;;4.04;100.00;99847.91;5027176;28;20404;-76
2023/01/21 02:26:11;;;;;;;1.10;1.10;;;;;;;4.08;100.00;99850.66;5120235;27;20200;-76
2023/01/21 02:28:58;;;;;;;0.90;0.90;;;;;;;4.07;100.00;99846.34;5149257;27;20208;-76
2023/01/21 02:32:00;;;;;;;0.80;0.80;;;;;;;4.07;100.00;99836.06;5122060;27;20228;-75
2023/01/21 02:34:36;;;;;;;0.70;0.70;;;;;;;4.06;100.00;99833.47;5065580;28;20226;-75
2023/01/21 02:37:11;;;;;;;1.07;1.07;;;;;;;4.01;100.00;99823.03;5028298;28;20231;-75
2023/01/21 02:39:54;;;;;;;0.80;0.80;;;;;;;4.00;100.00;99813.59;5028641;28;20211;-76
2023/01/21 02:42:28;;;;;;;0.70;0.70;;;;;;;3.85;100.00;99782.28;5014314;28;20224;-75
2023/01/21 02:45:04;;;;;;;0.90;0.90;;;;;;;4.04;100.00;99797.50;5011257;28;20207;-75
2023/01/21 02:47:38;;;;;;;1.00;1.00;;;;;;;4.02;100.00;99819.66;5028093;28;20208;-75
2023/01/21 02:50:12;;;;;;;1.40;1.40;;;;;;;4.03;100.00;99818.84;5008525;28;20314;-76
2023/01/21 02:52:39;;;;;;;0.60;0.60;;;;;;;4.00;100.00;99811.91;5025464;28;20769;-74
2023/01/21 02:55:12;;;;;;;0.93;0.93;;;;;;;4.07;100.00;99805.28;5027762;28;20304;-75
2023/01/21 02:57:46;;;;;;;0.83;0.83;;;;;;;4.07;100.00;99809.56;5009525;28;20188;-75
2023/01/21 03:00:18;;;;;;;0.80;0.80;;;;;;;3.93;100.00;99785.97;5008696;28;20208;-75
2023/01/21 03:03:21;;;;;;;0.90;0.90;;;;;;;4.00;100.00;99785.38;5025177;28;20735;-75
2023/01/21 03:06:15;;;;;;;0.90;0.90;;;;;;;4.06;100.00;99801.00;5014236;28;20207;-74
2023/01/21 03:08:47;;;;;;;0.93;0.93;;;;;;;4.06;100.00;99770.22;4937203;29;20204;-74
2023/01/21 03:11:17;;;;;;;0.90;0.90;;;;;;;4.08;100.00;99775.38;4970506;28;20225;-75
2023/01/21 03:16:58;;;;;;;1.00;1.00;;;;;;;4.13;100.00;99767.06;4992429;28;20629;-75
2023/01/21 03:19:32;;;;;;;1.00;1.00;;;;;;;4.04;100.00;99741.06;5008297;28;20208;-75
2023/01/21 03:22:04;;;;;;;0.80;0.80;;;;;;;4.08;100.00;99753.19;4999445;28;20197;-75
2023/01/21 03:24:32;;;;;;;0.80;0.80;;;;;;;3.95;100.00;99748.44;4956240;28;20300;-75
2023/01/21 03:27:00;;;;;;;0.90;0.90;;;;;;;4.07;100.00;99766.81;4989647;28;20280;-74
2023/01/21 03:29:30;;;;;;;0.80;0.80;;;;;;;3.89;100.00;99720.88;5007978;28;20201;-75
2023/01/21 03:32:02;;;;;;;0.90;0.90;;;;;;;3.72;100.00;99700.59;5001798;28;20217;-75
2023/01/21 03:34:33;;;;;;;1.00;1.00;;;;;;;4.13;100.00;99776.44;5003378;28;20334;-75
2023/01/21 03:37:07;;;;;;;0.90;0.90;;;;;;;4.13;100.00;99771.31;4990520;28;20236;-75
2023/01/21 03:39:42;;;;;;;0.80;0.80;;;;;;;4.11;100.00;99770.38;4992114;28;20240;-75
2023/01/21 03:42:09;;;;;;;0.90;0.90;;;;;;;4.02;100.00;99746.97;4999813;28;20232;-74
2023/01/21 03:44:37;;;;;;;0.90;0.90;;;;;;;4.15;100.00;99774.78;5000926;28;20206;-74
2023/01/21 03:47:17;;;;;;;0.90;0.90;;;;;;;4.26;100.00;99779.47;5093322;28;20197;-74
2023/01/21 03:49:49;;;;;;;0.93;0.93;;;;;;;4.21;100.00;99754.50;5114180;28;20275;-74
2023/01/21 03:52:20;;;;;;;0.80;0.80;;;;;;;4.29;100.00;99764.19;5104831;28;20686;-74
2023/01/21 03:54:48;;;;;;;0.90;0.90;;;;;;;4.22;100.00;99774.19;5093987;28;20676;-74
2023/01/21 03:57:15;;;;;;;0.83;0.83;;;;;;;4.14;100.00;99788.44;5110654;28;20285;-75
2023/01/21 03:59:41;;;;;;;0.80;0.80;;;;;;;4.07;100.00;99796.75;5112337;28;21525;-74
2023/01/21 04:02:08;;;;;;;0.87;0.87;;;;;;;4.00;100.00;99801.63;5100165;28;20194;-75
2023/01/21 04:04:35;;;;;;;0.90;0.90;;;;;;;3.88;100.00;99790.94;5093704;28;20629;-74
2023/01/21 04:07:02;;;;;;;1.07;1.07;;;;;;;3.95;100.00;99797.16;5102545;28;20201;-74
2023/01/21 04:09:30;;;;;;;0.73;0.73;;;;;;;3.97;100.00;99792.97;5113527;28;20194;-74
2023/01/21 04:11:57;;;;;;;1.43;1.37;;;;;;;3.99;100.00;99799.03;5107679;28;20294;-74
2023/01/21 04:14:24;;;;;;;0.80;0.80;;;;;;;3.93;100.00;99799.66;5093444;28;20289;-74
2023/01/21 04:16:50;;;;;;;0.90;0.90;;;;;;;3.96;100.00;99798.91;5094670;28;20285;-74
2023/01/21 04:19:17;;;;;;;0.73;0.73;;;;;;;3.96;100.00;99801.47;5093589;28;20287;-74
2023/01/21 04:21:44;;;;;;;0.80;0.80;;;;;;;3.77;100.00;99770.84;5094256;28;20198;-74
2023/01/21 04:24:11;;;;;;;0.70;0.70;;;;;;;3.96;100.00;99801.47;5093269;28;20608;-74
2023/01/21 04:26:39;;;;;;;0.90;0.90;;;;;;;4.01;100.00;99805.06;5065581;28;20194;-74
2023/01/21 04:29:06;;;;;;;0.80;0.80;;;;;;;4.03;100.00;99810.28;5096353;28;20559;-74
2023/01/21 04:31:32;;;;;;;0.80;0.80;;;;;;;3.98;100.00;99820.34;5110859;28;20776;-74
2023/01/21 04:33:59;;;;;;;1.13;1.13;;;;;;;3.89;100.00;99792.69;5093434;28;20303;-74
2023/01/21 04:36:26;;;;;;;0.80;0.80;;;;;;;3.98;100.00;99798.16;5095256;28;20206;-74
2023/01/21 04:38:53;;;;;;;1.40;1.40;;;;;;;3.90;100.00;99780.72;5094025;28;20190;-74
2023/01/21 04:41:19;;;;;;;0.83;0.83;;;;;;;3.92;100.00;99789.38;5060745;28;20197;-75
2023/01/21 04:43:47;;;;;;;0.80;0.80;;;;;;;4.04;100.00;99802.63;5100391;28;20194;-75
2023/01/21 04:46:14;;;;;;;0.67;0.67;;;;;;;3.99;100.00;99810.13;5117366;28;20205;-75
2023/01/21 04:48:41;;;;;;;0.80;0.80;;;;;;;4.00;100.00;99806.75;5116518;28;20206;-75
2023/01/21 04:51:08;;;;;;;0.73;0.73;;;;;;;4.03;100.00;99816.28;5111914;28;20217;-75
2023/01/21 04:53:34;;;;;;;0.77;0.77;;;;;;;3.96;100.00;99824.53;5093653;28;20202;-76
2023/01/21 04:56:01;;;;;;;2.37;2.27;;;;;;;3.95;100.00;99827.94;5092822;28;20661;-75
2023/01/21 04:58:28;;;;;;;0.77;0.77;;;;;;;4.01;100.00;99825.59;5097757;28;20752;-76
2023/01/21 05:00:56;;;;;;;0.87;0.87;;;;;;;4.05;100.00;99824.00;5112913;28;20575;-75
2023/01/21 05:03:23;;;;;;;0.80;0.80;;;;;;;3.87;100.00;99786.63;5110244;28;20258;-75
2023/01/21 05:05:50;;;;;;;0.90;0.90;;;;;;;4.08;100.00;99816.44;5093361;28;20658;-75
2023/01/21 05:08:17;;;;;;;1.00;1.00;;;;;;;4.04;100.00;99804.31;5103358;28;20622;-75
2023/01/21 05:10:44;;;;;;;0.83;0.83;;;;;;;3.99;100.00;99791.34;5111659;28;20696;-76
2023/01/21 05:13:10;;;;;;;0.90;0.90;;;;;;;3.95;100.00;99782.66;5097187;28;20205;-76
2023/01/21 05:15:37;;;;;;;1.00;1.00;;;;;;;3.89;100.00;99786.66;5092229;28;20209;-75
2023/01/21 05:18:06;;;;;;;0.80;0.80;;;;;;;3.95;100.00;99781.78;5092281;28;20194;-75
2023/01/21 05:20:32;;;;;;;0.90;0.90;;;;;;;3.91;100.00;99782.50;5092065;28;20210;-75
2023/01/21 05:22:59;;;;;;;0.93;0.93;;;;;;;3.79;100.00;99794.84;5105359;28;20198;-77
2023/01/21 05:25:26;;;;;;;0.70;0.70;;;;;;;3.77;100.00;99796.50;5098810;28;20612;-77
2023/01/21 05:27:53;;;;;;;0.80;0.80;;;;;;;3.49;100.00;99759.59;5092075;28;20676;-75
2023/01/21 05:30:20;;;;;;;0.90;0.90;;;;;;;3.64;100.00;99771.22;5100875;28;20202;-76
2023/01/21 05:32:50;;;;;;;0.97;0.97;;;;;;;3.82;100.00;99795.84;5100440;28;20684;-76
2023/01/21 05:35:19;;;;;;;0.80;0.80;;;;;;;3.83;100.00;99806.97;5091801;28;20657;-76
2023/01/21 05:37:46;;;;;;;1.00;1.00;;;;;;;3.81;100.00;99824.00;5071928;28;20202;-75
2023/01/21 05:40:14;;;;;;;0.80;0.80;;;;;;;3.88;100.00;99825.97;5102218;28;20213;-74
2023/01/21 05:42:41;;;;;;;0.90;0.90;;;;;;;3.84;100.00;99822.41;5101797;28;20259;-75
2023/01/21 05:45:09;;;;;;;0.80;0.80;;;;;;;3.84;100.00;99809.59;5099348;28;20189;-74
2023/01/21 05:47:36;;;;;;;0.80;0.80;;;;;;;3.83;100.00;99795.03;5111749;28;20652;-75
2023/01/21 05:50:03;;;;;;;0.90;0.90;;;;;;;3.84;100.00;99803.59;5112086;28;20228;-75
2023/01/21 05:52:31;;;;;;;0.80;0.80;;;;;;;3.82;100.00;99775.31;5102678;28;20221;-74
2023/01/21 05:54:58;;;;;;;0.80;0.80;;;;;;;3.84;100.00;99790.78;5039613;28;20205;-74
2023/01/21 05:57:25;;;;;;;0.90;0.90;;;;;;;3.88;100.00;99800.34;5092541;28;20213;-82
2023/01/21 05:59:51;;;;;;;0.80;0.80;;;;;;;3.97;100.00;99798.09;5073630;28;20204;-79
2023/01/21 06:02:18;;;;;;;1.53;1.53;;;;;;;4.03;100.00;99802.59;5104564;28;20258;-74
2023/01/21 06:04:45;;;;;;;0.70;0.70;;;;;;;4.05;100.00;99793.25;5103236;28;20208;-73
2023/01/21 06:07:12;;;;;;;0.77;0.77;;;;;;;4.21;100.00;99801.53;5109886;28;20193;-73
2023/01/21 06:09:40;;;;;;;1.50;1.50;;;;;;;4.18;100.00;99780.91;5062296;28;20263;-75
2023/01/21 06:12:06;;;;;;;0.73;0.73;;;;;;;4.44;100.00;99794.63;5106519;28;20275;-75
2023/01/21 06:14:33;;;;;;;0.87;0.87;;;;;;;4.44;100.00;99790.38;5091018;28;20206;-76
2023/01/21 06:17:00;;;;;;;1.00;1.00;;;;;;;4.54;100.00;99800.94;5091147;28;20198;-76
2023/01/21 06:19:27;;;;;;;0.70;0.70;;;;;;;4.70;100.00;99818.66;5091067;28;20684;-74
2023/01/21 06:21:54;;;;;;;1.00;1.00;;;;;;;4.73;100.00;99823.88;5064422;28;20198;-75
2023/01/21 06:24:20;;;;;;;0.80;0.80;;;;;;;4.89;100.00;99820.97;5058101;28;20227;-76
2023/01/21 06:26:48;;;;;;;0.90;0.90;;;;;;;5.11;100.00;99807.16;5093068;28;20209;-75
2023/01/21 06:29:15;;;;;;;0.80;0.80;;;;;;;5.11;100.00;99813.16;5090787;28;20641;-76
2023/01/21 06:31:42;;;;;;;4.70;1.40;;;;;;;5.12;100.00;99819.19;5096251;28;20714;-77
2023/01/21 06:34:11;;;;;;;0.70;0.70;;;;;;;5.17;100.00;99805.66;5058458;28;20611;-74
2023/01/21 06:36:39;;;;;;;0.70;0.70;;;;;;;5.42;100.00;99821.00;5101308;28;20200;-74
2023/01/21 06:39:08;;;;;;;0.70;0.70;;;;;;;5.41;100.00;99809.00;5102791;28;20672;-73
2023/01/21 06:41:35;;;;;;;0.70;0.70;;;;;;;5.58;100.00;99835.22;5046222;28;20209;-74
2023/01/21 06:44:03;;;;;;;0.80;0.80;;;;;;;5.59;100.00;99811.25;5098067;28;20209;-73
2023/01/21 06:46:30;;;;;;;0.60;0.60;;;;;;;5.56;100.00;99824.03;5096790;28;20213;-74
2023/01/21 06:48:57;;;;;;;0.60;0.60;;;;;;;5.02;100.00;99830.88;5099586;28;20568;-74
2023/01/21 06:51:24;;;;;;;0.80;0.80;;;;;;;4.96;100.00;99825.50;5098944;28;20655;-74
2023/01/21 06:53:51;;;;;;;0.90;0.90;;;;;;;4.47;100.00;99820.41;5073732;28;20201;-73
2023/01/21 06:56:18;;;;;;;1.20;1.20;;;;;;;4.30;100.00;99791.59;5109396;28;20223;-73
2023/01/21 06:58:44;;;;;;;0.80;0.80;;;;;;;4.42;100.00;99809.97;5053302;28;20206;-74
2023/01/21 07:01:12;;;;;;;0.77;0.77;;;;;;;4.67;100.00;99833.94;5098727;28;20209;-74
2023/01/21 07:03:39;;;;;;;0.90;0.90;;;;;;;4.66;100.00;99833.06;5099791;28;20202;-74
2023/01/21 07:06:06;;;;;;;0.80;0.80;;;;;;;4.64;100.00;99826.16;5110929;28;20210;-74
2023/01/21 07:08:33;;;;;;;0.93;0.93;;;;;;;4.63;100.00;99843.25;5099566;28;20213;-75
2023/01/21 07:11:00;;;;;;;1.17;1.17;;;;;;;4.75;100.00;99823.09;5094433;28;20201;-78
2023/01/21 07:13:27;;;;;;;1.27;1.27;;;;;;;4.75;100.00;99814.50;5108533;28;20200;-76
2023/01/21 07:15:59;;;;;;;0.80;0.80;;;;;;;4.39;100.00;99776.50;5094881;28;20664;-76
2023/01/21 07:18:28;;;;;;;1.00;1.00;;;;;;;4.36;100.00;99758.44;5102116;28;20229;-78
2023/01/21 07:20:54;;;;;;;0.90;0.90;;;;;;;4.83;100.00;99828.50;5055313;28;20202;-73
2023/01/21 07:23:21;;;;;;;4.47;3.13;;;;;;;4.98;100.00;99823.88;5093629;28;20198;-74
2023/01/21 07:25:48;;;;;;;1.10;1.10;;;;;;;4.96;100.00;99808.41;5095577;28;20221;-75
2023/01/21 07:28:15;;;;;;;0.70;0.70;;;;;;;5.03;100.00;99801.75;5092832;28;20250;-74
2023/01/21 07:30:42;;;;;;;0.80;0.80;;;;;;;5.30;100.00;99823.22;5096431;28;20578;-74
2023/01/21 07:33:09;;;;;;;0.80;0.80;;;;;;;5.11;100.00;99828.56;5093330;28;20298;-74
2023/01/21 07:35:38;;;;;;;1.17;1.17;;;;;;;5.13;100.00;99790.97;5096739;28;20202;-74
2023/01/21 07:38:04;;;;;;;2.40;2.20;;;;;;;5.49;100.00;99838.38;5111668;28;20197;-74
2023/01/21 07:40:31;;;;;;;1.47;1.47;;;;;;;5.54;100.00;99841.09;5097985;28;20202;-73
2023/01/21 07:42:58;;;;;;;1.00;1.00;;;;;;;5.47;100.00;99840.03;5098625;28;20193;-75
2023/01/21 07:45:25;;;;;;;0.70;0.70;;;;;;;5.29;100.00;99823.16;5113376;28;20209;-73
2023/01/21 07:47:52;;;;;;;0.80;0.80;;;;;;;5.10;100.00;99795.16;5112883;28;20204;-73
2023/01/21 07:50:19;;;;;;;0.90;0.90;;;;;;;5.27;100.00;99815.41;5075773;28;20197;-73
2023/01/21 07:52:47;;;;;;;0.90;0.90;;;;;;;4.94;100.00;99778.34;5113816;28;20301;-74
2023/01/21 07:55:14;;;;;;;0.97;0.97;;;;;;;4.90;100.00;99790.22;5113602;28;20213;-73
2023/01/21 07:57:40;;;;;;;0.80;0.80;;;;;;;4.87;100.00;99790.13;5112658;28;20224;-73
2023/01/21 08:00:08;;;;;;;0.90;0.90;;;;;;;5.15;100.00;99768.75;5112774;28;20197;-78
2023/01/21 08:02:35;;;;;;;0.70;0.70;;;;;;;5.07;100.00;99772.78;5108892;28;20610;-75
2023/01/21 08:05:02;;;;;;;0.90;0.90;;;;;;;5.09;100.00;99812.25;5050867;28;20539;-73
2023/01/21 08:07:29;;;;;;;0.83;0.83;;;;;;;5.32;100.00;99794.97;5058732;28;20616;-74
2023/01/21 08:09:57;;;;;;;0.67;0.67;;;;;;;5.43;100.00;99791.91;5100710;28;20977;-74
2023/01/21 08:12:24;;;;;;;0.80;0.80;;;;;;;5.76;100.00;99814.31;5108061;28;20243;-74
2023/01/21 08:14:50;;;;;;;1.97;1.77;;;;;;;6.12;100.00;99825.72;5100773;28;20572;-73
2023/01/21 08:17:17;;;;;;;0.60;0.60;;;;;;;6.15;100.00;99823.22;5099793;28;20274;-76
2023/01/21 08:19:44;;;;;;;0.70;0.70;;;;;;;6.15;100.00;99836.09;5098632;28;20205;-74
2023/01/21 08:22:11;;;;;;;1.00;1.00;;;;;;;6.32;100.00;99836.56;5111608;28;20269;-75
2023/01/21 08:24:38;;;;;;;0.80;0.80;;;;;;;6.29;100.00;99839.94;5112357;28;20209;-72
2023/01/21 08:27:06;;;;;;;1.00;1.00;;;;;;;5.90;100.00;99837.09;5113016;28;20660;-73
2023/01/21 08:29:32;;;;;;;1.33;1.33;;;;;;;5.84;100.00;99824.03;5112608;28;20194;-73
2023/01/21 08:31:59;;;;;;;0.70;0.70;;;;;;;5.79;100.00;99829.84;5110393;28;20217;-74
2023/01/21 08:34:26;;;;;;;1.70;1.60;;;;;;;6.04;100.00;99828.88;5112931;28;20225;-75
2023/01/21 08:36:53;;;;;;;0.67;0.67;;;;;;;5.76;100.00;99829.75;5112776;28;20201;-75
2023/01/21 08:39:20;;;;;;;0.70;0.70;;;;;;;5.65;100.00;99828.56;5111896;28;20624;-74
2023/01/21 08:41:46;;;;;;;0.60;0.60;;;;;;;5.42;100.00;99815.88;5112378;28;20197;-74
2023/01/21 08:44:14;;;;;;;3.80;3.53;;;;;;;5.41;100.00;99823.56;5111667;28;20197;-76
2023/01/21 08:46:41;;;;;;;0.83;0.83;;;;;;;5.95;100.00;99826.94;5112276;28;20209;-75
2023/01/21 08:49:08;;;;;;;1.33;1.33;;;;;;;6.27;100.00;99846.75;5110880;28;20232;-73
2023/01/21 08:51:35;;;;;;;0.70;0.70;;;;;;;6.08;100.00;99841.91;5055996;28;20258;-74
2023/01/21 08:54:02;;;;;;;0.80;0.80;;;;;;;6.11;100.00;99841.97;5112557;28;20254;-73
2023/01/21 08:56:28;;;;;;;0.80;0.80;;;;;;;6.08;100.00;99818.75;5112372;28;20198;-74
2023/01/21 08:58:56;;;;;;;0.80;0.80;;;;;;;6.21;100.00;99838.84;5104070;28;20209;-72
2023/01/21 09:01:25;;;;;;;0.90;0.90;;;;;;;6.26;100.00;99826.97;5111878;28;20204;-73
2023/01/21 09:03:55;;;;;;;0.73;0.73;;;;;;;6.13;100.00;99824.91;5097086;28;20755;-73
2023/01/21 09:06:22;;;;;;;0.77;0.77;;;;;;;6.20;100.00;99816.53;5104025;28;20309;-72
2023/01/21 09:08:49;;;;;;;0.77;0.77;;;;;;;6.27;100.00;99810.72;5091661;28;20210;-73
2023/01/21 09:11:16;;;;;;;0.60;0.60;;;;;;;6.35;100.00;99814.34;5107819;28;20205;-73
2023/01/21 09:13:43;;;;;;;0.80;0.80;;;;;;;6.16;100.00;99778.66;5112134;28;20316;-73
2023/01/21 09:16:12;;;;;;;0.80;0.80;;;;;;;6.49;100.00;99809.59;5111871;28;20201;-73
2023/01/21 09:18:40;;;;;;;0.80;0.80;;;;;;;6.73;100.00;99835.13;5094475;28;20209;-75
2023/01/21 09:21:07;;;;;;;0.87;0.87;;;;;;;6.73;100.00;99835.13;5091118;28;20205;-75
2023/01/21 09:23:36;;;;;;;0.60;0.60;;;;;;;6.93;100.00;99829.63;5106426;28;20683;-73
2023/01/21 09:26:05;;;;;;;0.90;0.90;;;;;;;6.81;100.00;99803.53;5111446;28;20201;-74
2023/01/21 09:28:34;;;;;;;0.70;0.70;;;;;;;6.91;100.00;99807.25;5111766;28;20568;-75
2023/01/21 09:31:02;;;;;;;0.80;0.80;;;;;;;6.75;100.00;99807.66;5109373;28;20200;-75
2023/01/21 09:33:30;;;;;;;0.80;0.80;;;;;;;6.68;100.00;99800.63;5110374;28;20264;-74
2023/01/21 09:36:00;;;;;;;0.80;0.80;;;;;;;6.72;100.00;99790.44;5110917;28;20605;-73
2023/01/21 09:38:28;;;;;;;1.10;1.10;;;;;;;6.72;100.00;99781.84;5110146;28;20584;-73
2023/01/21 09:40:58;;;;;;;0.60;0.60;;;;;;;7.02;100.00;99781.72;5104908;28;20777;-74
2023/01/21 09:43:30;;;;;;;0.83;0.83;;;;;;;7.35;100.00;99785.97;5111829;28;20254;-71
2023/01/21 09:46:00;;;;;;;1.03;1.03;;;;;;;7.56;100.00;99802.78;5074775;28;20200;-72
2023/01/21 09:48:31;;;;;;;0.60;0.60;;;;;;;7.22;100.00;99727.22;5058545;28;20205;-72
2023/01/21 09:51:05;;;;;;;0.80;0.80;;;;;;;7.77;100.00;99795.50;5110689;28;20266;-72
2023/01/21 09:53:38;;;;;;;0.73;0.73;;;;;;;7.87;100.00;99800.91;5111207;28;20221;-73
2023/01/21 09:56:11;;;;;;;0.83;0.83;;;;;;;8.05;100.00;99799.53;5103827;28;20608;-74
2023/01/21 09:58:45;;;;;;;1.00;1.00;;;;;;;7.98;100.00;99803.69;5111306;28;20205;-79
2023/01/21 10:01:17;;;;;;;1.37;1.37;;;;;;;8.11;100.00;99797.94;5110817;28;20618;-74
2023/01/21 10:03:50;;;;;;;0.80;0.80;;;;;;;7.87;100.00;99712.28;5095957;28;20206;-75
2023/01/21 10:06:26;;;;;;;20.30;1.93;;;;;;;8.76;100.00;99790.59;5104293;28;20193;-74
2023/01/21 10:09:07;;;;;;;0.70;0.70;;;;;;;8.87;100.00;99794.22;5098338;28;20636;-75
2023/01/21 10:11:47;;;;;;;0.70;0.70;;;;;;;8.98;100.00;99784.06;5107590;28;20197;-74
2023/01/21 10:14:30;;;;;;;0.80;0.80;;;;;;;8.88;100.00;99788.22;5106368;28;20201;-76
2023/01/21 10:17:03;;;;;;;0.70;0.70;;;;;;;9.35;100.00;99779.47;5105434;28;20685;-75
2023/01/21 10:19:35;;;;;;;1.87;1.77;;;;;;;9.43;100.00;99777.88;5097772;28;20201;-76
2023/01/21 10:22:09;;;;;;;5.20;2.23;;;;;;;9.51;100.00;99757.28;5101581;28;20687;-76
2023/01/21 10:24:40;;;;;;;0.80;0.80;;;;;;;9.83;100.00;99768.94;5107145;28;20695;-73
2023/01/21 10:27:15;;;;;;;0.90;0.90;;;;;;;9.87;100.00;99778.50;5104606;28;20193;-76
2023/01/21 10:29:43;;;;;;;0.70;0.70;;;;;;;9.71;100.00;99762.72;5104999;28;20201;-72
2023/01/21 10:32:16;;;;;;;0.60;0.60;;;;;;;9.79;100.00;99772.34;5109400;28;20703;-73
2023/01/21 10:34:49;;;;;;;0.80;0.80;;;;;;;9.85;100.00;99763.78;5099586;28;20198;-74
2023/01/21 10:37:28;;;;;;;0.60;0.60;;;;;;;9.98;100.00;99772.56;5110604;28;20221;-74
2023/01/21 10:40:02;;;;;;;0.50;0.50;;;;;;;9.93;100.00;99762.16;5090484;28;20198;-72
2023/01/21 10:42:43;;;;;;;2.00;1.60;;;;;;;9.79;100.00;99761.13;5098944;28;20209;-74
2023/01/21 10:45:23;;;;;;;1.00;1.00;;;;;;;9.82;100.00;99755.97;5100890;28;20197;-76
2023/01/21 10:47:56;;;;;;;0.80;0.80;;;;;;;9.82;100.00;99763.75;5101520;28;20548;-73
2023/01/21 10:50:38;;;;;;;0.90;0.90;;;;;;;9.76;100.00;99750.72;5092723;28;20208;-73
2023/01/21 10:53:17;;;;;;;0.90;0.90;;;;;;;10.05;100.00;99727.78;5109245;28;20282;-73
2023/01/21 10:56:05;;;;;;;0.73;0.73;;;;;;;10.31;100.00;99729.81;5110281;28;20610;-77
2023/01/21 10:58:38;;;;;;;0.60;0.60;;;;;;;10.32;100.00;99733.28;5105307;28;20270;-76
2023/01/21 11:01:09;;;;;;;0.80;0.80;;;;;;;10.32;100.00;99721.19;5046786;28;20197;-76
2023/01/21 11:03:40;;;;;;;0.60;0.60;;;;;;;10.47;100.00;99745.53;5097418;28;20202;-74
2023/01/21 11:06:11;;;;;;;0.90;0.90;;;;;;;10.53;100.00;99719.66;5104975;28;20609;-74
2023/01/21 11:08:41;;;;;;;0.55;0.55;;;;;;;10.67;100.00;99742.25;5072659;28;20887;-74
2023/01/21 11:11:08;;;;;;;0.85;0.85;;;;;;;10.94;100.00;99741.63;5100391;28;20267;-73
2023/01/21 11:13:35;;;;;;;0.50;0.50;;;;;;;10.57;100.00;99695.50;5097612;28;20630;-73
2023/01/21 11:16:03;;;;;;;1.17;1.17;;;;;;;10.82;100.00;99752.78;5056488;28;20202;-73
2023/01/21 11:18:33;;;;;;;0.65;0.65;;;;;;;10.83;100.00;99745.88;5045836;28;20664;-73
2023/01/21 11:21:02;;;;;;;0.50;0.50;;;;;;;10.79;100.00;99736.31;5106912;28;20197;-73
2023/01/21 11:23:30;;;;;;;0.50;0.50;;;;;;;10.73;100.00;99737.16;5108676;28;20648;-74
2023/01/21 11:26:03;;;;;;;0.73;0.73;;;;;;;10.92;100.00;99732.97;5110158;28;20205;-73
2023/01/21 11:28:30;;;;;;;0.52;0.52;;;;;;;11.05;100.00;99736.53;5109598;28;20197;-73
2023/01/21 11:31:13;;;;;;;0.80;0.80;;;;;;;11.29;100.00;99723.72;5108522;28;20200;-74
2023/01/21 11:33:42;;;;;;;0.60;0.60;;;;;;;11.48;100.00;99715.19;5095216;28;20240;-73
2023/01/21 11:36:14;;;;;;;0.80;0.80;;;;;;;11.46;100.00;99683.16;5108428;28;20216;-73
2023/01/21 11:38:42;;;;;;;0.80;0.80;;;;;;;11.72;100.00;99706.66;5109207;28;20214;-76
2023/01/21 11:41:21;;;;;;;0.70;0.70;;;;;;;11.55;100.00;99653.78;5097600;28;20201;-75
2023/01/21 11:43:50;;;;;;;0.63;0.63;;;;;;;12.05;100.00;99680.81;5089141;28;20518;-72
2023/01/21 11:46:27;;;;;;;0.70;0.70;;;;;;;12.41;100.00;99719.03;5096904;28;20205;-76